Aviation Digital Data Service (ADDS)

Output produced by METARs form (0456 UTC 20 October 2017)
found at http://aviationweather.gov/adds/metars/
 
KLBT 192326Z 2000/2024 VRB02KT P6SM SKC 
     TEMPO 2010/2012 4SM BR 
     FM201400 36005KT P6SM SKC